createdAt,value
2023-05-09T00:02:18.051Z,7.00
2023-05-09T00:04:44.973Z,6.87
2023-05-09T00:07:11.891Z,6.67
2023-05-09T00:09:38.748Z,7.03
2023-05-09T00:12:05.913Z,7.10
2023-05-09T00:14:33.725Z,7.60
2023-05-09T00:17:01.005Z,7.93
2023-05-09T00:19:27.882Z,7.30
2023-05-09T00:21:54.730Z,7.83
2023-05-09T00:24:22.138Z,7.77
2023-05-09T00:26:49.110Z,7.17
2023-05-09T00:29:15.920Z,7.57
2023-05-09T00:31:42.849Z,8.00
2023-05-09T00:34:10.221Z,7.80
2023-05-09T00:36:37.146Z,7.37
2023-05-09T00:39:04.033Z,7.80
2023-05-09T00:41:30.911Z,7.97
2023-05-09T00:43:57.887Z,6.80
2023-05-09T00:46:25.362Z,7.73
2023-05-09T00:48:52.721Z,8.30
2023-05-09T00:51:19.914Z,7.50
2023-05-09T00:53:46.768Z,7.97
2023-05-09T00:56:14.994Z,7.87
2023-05-09T00:58:41.880Z,7.33
2023-05-09T01:01:09.025Z,6.90
2023-05-09T01:03:36.328Z,7.17
2023-05-09T01:06:06.108Z,7.13
2023-05-09T01:08:45.068Z,6.87
2023-05-09T01:11:15.259Z,6.93
2023-05-09T01:13:49.727Z,6.15
2023-05-09T01:16:37.205Z,7.40
2023-05-09T01:19:22.712Z,7.50
2023-05-09T01:21:50.419Z,7.20
2023-05-09T01:24:20.095Z,8.23
2023-05-09T01:26:52.590Z,6.83
2023-05-09T01:29:40.564Z,7.00
2023-05-09T01:32:12.737Z,7.17
2023-05-09T01:34:40.940Z,6.57
2023-05-09T01:37:08.669Z,7.43
2023-05-09T01:39:38.184Z,7.27
2023-05-09T01:42:07.531Z,6.90
2023-05-09T01:44:37.289Z,6.43
2023-05-09T01:47:04.615Z,7.37
2023-05-09T01:49:32.860Z,7.40
2023-05-09T01:52:02.133Z,7.30
2023-05-09T01:54:29.420Z,6.77
2023-05-09T01:56:56.893Z,6.70
2023-05-09T01:59:24.029Z,6.73
2023-05-09T02:01:51.389Z,6.63
2023-05-09T02:04:18.723Z,7.10
2023-05-09T02:06:46.405Z,6.30
2023-05-09T02:09:13.488Z,7.10
2023-05-09T02:11:41.171Z,6.77
2023-05-09T02:14:08.161Z,6.27
2023-05-09T02:16:35.685Z,6.07
2023-05-09T02:19:03.068Z,7.30
2023-05-09T02:21:30.010Z,6.77
2023-05-09T02:23:57.012Z,6.30
2023-05-09T02:26:26.066Z,7.37
2023-05-09T02:28:53.778Z,6.60
2023-05-09T02:31:21.084Z,6.27
2023-05-09T02:33:48.146Z,6.37
2023-05-09T02:36:16.796Z,6.43
2023-05-09T02:38:43.972Z,6.07
2023-05-09T02:41:14.948Z,6.27
2023-05-09T02:43:42.356Z,6.40
2023-05-09T02:46:09.694Z,6.13
2023-05-09T02:48:36.825Z,6.37
2023-05-09T02:51:04.573Z,5.53
2023-05-09T02:53:31.481Z,6.43
2023-05-09T02:55:59.188Z,5.77
2023-05-09T02:58:26.053Z,6.90
2023-05-09T03:00:52.996Z,5.87
2023-05-09T03:03:20.068Z,6.10
2023-05-09T03:05:47.135Z,6.23
2023-05-09T03:08:14.018Z,6.10
2023-05-09T03:10:41.367Z,6.30
2023-05-09T03:13:08.968Z,6.53
2023-05-09T03:15:36.037Z,7.13
2023-05-09T03:18:04.262Z,7.37
2023-05-09T03:20:31.364Z,6.90
2023-05-09T03:22:59.057Z,7.13
2023-05-09T03:25:26.606Z,7.30
2023-05-09T03:27:53.529Z,7.60
2023-05-09T03:30:20.570Z,7.17
2023-05-09T03:32:49.298Z,7.13
2023-05-09T03:35:16.605Z,7.50
2023-05-09T03:37:43.872Z,7.20
2023-05-09T03:40:11.056Z,7.33
2023-05-09T03:42:46.021Z,7.13
2023-05-09T03:45:13.171Z,8.07
2023-05-09T03:47:41.305Z,8.20
2023-05-09T03:50:09.075Z,8.17
2023-05-09T03:52:37.513Z,7.33
2023-05-09T03:55:06.101Z,7.27
2023-05-09T03:57:35.468Z,7.90
2023-05-09T04:00:03.389Z,7.87
2023-05-09T04:02:40.839Z,6.97
2023-05-09T04:05:11.758Z,7.13
2023-05-09T04:07:39.006Z,7.97
2023-05-09T04:10:07.099Z,6.80
2023-05-09T04:12:34.282Z,7.57
2023-05-09T04:15:01.512Z,6.90
2023-05-09T04:17:29.354Z,6.83
2023-05-09T04:19:56.506Z,7.23
2023-05-09T04:22:23.643Z,6.90
2023-05-09T04:24:51.465Z,6.93
2023-05-09T04:27:18.280Z,7.63
2023-05-09T04:29:45.840Z,8.23
2023-05-09T04:32:13.493Z,8.67
2023-05-09T04:34:40.893Z,8.53
2023-05-09T04:37:16.041Z,9.13
2023-05-09T04:39:43.630Z,8.63
2023-05-09T04:42:23.360Z,9.07
2023-05-09T04:44:50.534Z,9.13
2023-05-09T04:47:17.502Z,8.93
2023-05-09T04:49:44.746Z,8.83
2023-05-09T04:52:11.620Z,8.47
2023-05-09T04:54:38.640Z,8.53
2023-05-09T04:57:17.146Z,8.73
2023-05-09T04:59:50.211Z,9.07
2023-05-09T05:02:17.972Z,9.67
2023-05-09T05:04:45.542Z,9.77
2023-05-09T05:07:13.319Z,9.30
2023-05-09T05:09:41.213Z,8.83
2023-05-09T05:12:09.826Z,9.13
2023-05-09T05:14:39.084Z,9.03
2023-05-09T05:17:09.112Z,8.17
2023-05-09T05:19:36.322Z,8.43
2023-05-09T05:22:05.162Z,8.10
2023-05-09T05:24:33.365Z,9.10
2023-05-09T05:27:00.212Z,8.87
2023-05-09T05:29:27.587Z,7.37
2023-05-09T05:31:55.209Z,7.67
2023-05-09T05:34:22.221Z,7.43
2023-05-09T05:36:49.078Z,6.70
2023-05-09T05:39:16.467Z,7.50
2023-05-09T05:41:43.534Z,6.90
2023-05-09T05:44:11.049Z,6.53
2023-05-09T05:46:38.437Z,6.23
2023-05-09T05:49:05.980Z,6.17
2023-05-09T05:51:34.023Z,6.30
2023-05-09T05:54:02.618Z,5.63
2023-05-09T05:56:30.095Z,6.40
2023-05-09T05:58:57.338Z,6.93
2023-05-09T06:01:24.428Z,5.87
2023-05-09T06:03:54.986Z,6.63
2023-05-09T06:06:24.619Z,6.37
2023-05-09T06:08:51.584Z,5.77
2023-05-09T06:11:18.877Z,7.03
2023-05-09T06:13:45.908Z,7.07
2023-05-09T06:16:19.601Z,6.17
2023-05-09T06:18:50.324Z,7.57
2023-05-09T06:21:17.311Z,7.67
2023-05-09T06:23:57.851Z,6.87
2023-05-09T06:26:28.982Z,6.43
2023-05-09T06:28:56.264Z,6.87
2023-05-09T06:31:24.874Z,6.27
2023-05-09T06:33:52.828Z,6.30
2023-05-09T06:36:19.639Z,5.07
2023-05-09T06:38:46.682Z,5.93
2023-05-09T06:41:13.557Z,5.10
2023-05-09T06:43:40.627Z,6.23
2023-05-09T06:46:07.508Z,6.67
2023-05-09T06:48:34.535Z,5.40
2023-05-09T06:51:01.425Z,4.10
2023-05-09T06:53:28.449Z,4.07
2023-05-09T06:55:55.484Z,4.10
2023-05-09T06:58:23.036Z,4.10
2023-05-09T07:00:50.180Z,4.57
2023-05-09T07:03:17.038Z,4.37
2023-05-09T07:05:44.041Z,4.90
2023-05-09T07:08:10.974Z,5.40
2023-05-09T07:10:38.993Z,4.90
2023-05-09T07:13:06.142Z,5.70
2023-05-09T07:15:41.397Z,5.80
2023-05-09T07:18:09.446Z,6.37
2023-05-09T07:20:36.547Z,5.40
2023-05-09T07:23:04.262Z,4.43
2023-05-09T07:25:31.253Z,4.50
2023-05-09T07:27:58.408Z,5.80
2023-05-09T07:30:25.481Z,4.10
2023-05-09T07:32:52.786Z,4.00
2023-05-09T07:35:19.925Z,3.70
2023-05-09T07:37:46.919Z,3.53
2023-05-09T07:40:14.541Z,3.50
2023-05-09T07:42:42.358Z,3.13
2023-05-09T07:45:10.529Z,2.90
2023-05-09T07:47:37.636Z,3.20
2023-05-09T07:50:04.640Z,2.73
2023-05-09T07:52:31.651Z,1.77
2023-05-09T07:54:58.663Z,3.50
2023-05-09T07:57:25.708Z,2.93
2023-05-09T07:59:52.545Z,3.30
2023-05-09T08:02:19.677Z,2.73
2023-05-09T08:04:49.271Z,2.70
2023-05-09T08:07:16.474Z,3.13
2023-05-09T08:09:43.399Z,3.57
2023-05-09T08:12:10.293Z,3.77
2023-05-09T08:14:37.200Z,2.77
2023-05-09T08:17:04.217Z,3.20
2023-05-09T08:19:31.154Z,2.90
2023-05-09T08:21:58.027Z,3.40
2023-05-09T08:24:24.910Z,2.50
2023-05-09T08:26:51.780Z,2.90
2023-05-09T08:29:18.827Z,2.93
2023-05-09T08:31:45.885Z,3.33
2023-05-09T08:34:12.887Z,2.83
2023-05-09T08:36:41.156Z,2.53
2023-05-09T08:39:09.778Z,3.63
2023-05-09T08:41:37.220Z,2.77
2023-05-09T08:44:04.836Z,2.83
2023-05-09T08:46:33.138Z,2.20
2023-05-09T08:49:00.910Z,3.30
2023-05-09T08:51:29.742Z,2.97
2023-05-09T08:53:56.869Z,4.27
2023-05-09T08:56:23.971Z,3.67
2023-05-09T08:58:51.050Z,1.90
2023-05-09T09:01:18.542Z,2.20
2023-05-09T09:03:47.909Z,3.33
2023-05-09T09:06:15.882Z,3.33
2023-05-09T09:08:43.546Z,3.27
2023-05-09T09:11:13.931Z,2.60
2023-05-09T09:13:42.023Z,3.50
2023-05-09T09:16:11.499Z,3.00
2023-05-09T09:18:39.912Z,1.97
2023-05-09T09:21:08.857Z,2.60
2023-05-09T09:23:37.562Z,2.80
2023-05-09T09:26:05.123Z,2.70
2023-05-09T09:28:32.802Z,2.37
2023-05-09T09:30:59.716Z,2.50
2023-05-09T09:33:27.274Z,2.97
2023-05-09T09:35:55.227Z,3.37
2023-05-09T09:38:22.826Z,3.40
2023-05-09T09:40:52.679Z,3.17
2023-05-09T09:43:19.854Z,2.57
2023-05-09T09:45:50.869Z,3.27
2023-05-09T09:48:17.973Z,2.90
2023-05-09T09:50:47.429Z,2.83
2023-05-09T09:53:14.554Z,2.90
2023-05-09T09:55:49.324Z,2.60
2023-05-09T09:58:16.626Z,3.73
2023-05-09T10:00:44.118Z,3.10
2023-05-09T10:03:15.018Z,2.70
2023-05-09T10:05:42.618Z,2.23
2023-05-09T10:08:09.996Z,2.10
2023-05-09T10:10:37.546Z,1.90
2023-05-09T10:13:06.527Z,1.73
2023-05-09T10:15:45.515Z,2.13
2023-05-09T10:18:24.256Z,2.10
2023-05-09T10:20:51.476Z,2.10
2023-05-09T10:23:18.429Z,2.10
2023-05-09T10:25:47.883Z,1.63
2023-05-09T10:28:18.892Z,2.10
2023-05-09T10:31:19.875Z,1.80
2023-05-09T10:33:48.268Z,1.90
2023-05-09T10:36:22.193Z,2.30
2023-05-09T10:38:49.342Z,2.13
2023-05-09T10:41:16.871Z,2.40
2023-05-09T10:43:44.543Z,2.10
2023-05-09T10:46:12.395Z,1.97
2023-05-09T10:48:40.208Z,3.17
2023-05-09T10:51:08.575Z,2.30
2023-05-09T10:53:48.806Z,2.80
2023-05-09T10:56:25.399Z,2.80
2023-05-09T10:58:52.818Z,2.90
2023-05-09T11:01:35.364Z,2.47
2023-05-09T11:04:08.808Z,2.23
2023-05-09T11:06:49.574Z,2.50
2023-05-09T11:09:25.204Z,2.13
2023-05-09T11:11:53.328Z,2.03
2023-05-09T11:14:30.493Z,3.00
2023-05-09T11:17:04.436Z,2.93
2023-05-09T11:19:37.354Z,2.70
2023-05-09T11:22:21.238Z,2.60
2023-05-09T11:24:52.046Z,2.23
2023-05-09T11:27:23.167Z,2.23
2023-05-09T11:29:51.451Z,2.73
2023-05-09T11:32:19.130Z,2.57
2023-05-09T11:34:46.207Z,2.17
2023-05-09T11:37:14.435Z,2.10
2023-05-09T11:39:57.471Z,2.23
2023-05-09T11:42:27.858Z,2.13
2023-05-09T11:44:55.166Z,1.90
2023-05-09T11:47:22.308Z,1.77
2023-05-09T11:49:49.989Z,2.10
2023-05-09T11:52:17.285Z,1.57
2023-05-09T11:54:44.453Z,2.30
2023-05-09T11:57:11.794Z,2.20
2023-05-09T11:59:38.682Z,2.43
2023-05-09T12:02:06.179Z,2.67
2023-05-09T12:04:33.663Z,2.37
2023-05-09T12:07:01.321Z,1.60
2023-05-09T12:09:34.609Z,2.30
2023-05-09T12:12:01.626Z,2.03
2023-05-09T12:14:32.645Z,2.50
2023-05-09T12:16:59.613Z,2.60
2023-05-09T12:19:27.073Z,2.23
2023-05-09T12:22:00.377Z,1.67
2023-05-09T12:24:27.820Z,2.03
2023-05-09T12:26:58.807Z,2.60
2023-05-09T12:29:26.166Z,2.50
2023-05-09T12:31:53.908Z,2.33
2023-05-09T12:34:21.347Z,2.53
2023-05-09T12:36:51.982Z,2.27
2023-05-09T12:39:21.991Z,2.70
2023-05-09T12:42:00.503Z,2.27
2023-05-09T12:44:30.199Z,2.60
2023-05-09T12:47:03.909Z,2.80
2023-05-09T12:49:31.830Z,2.70
2023-05-09T12:52:02.320Z,2.47
2023-05-09T12:54:30.810Z,2.40
2023-05-09T12:56:58.554Z,2.53
2023-05-09T12:59:28.619Z,2.57
2023-05-09T13:01:59.687Z,2.40
2023-05-09T13:04:28.303Z,2.63
2023-05-09T13:06:56.050Z,2.33
2023-05-09T13:09:23.604Z,2.10
2023-05-09T13:11:51.199Z,2.80
2023-05-09T13:14:18.758Z,2.77
2023-05-09T13:16:46.353Z,2.90
2023-05-09T13:19:13.646Z,2.63
2023-05-09T13:21:40.596Z,2.30
2023-05-09T13:24:07.684Z,2.70
2023-05-09T13:26:34.524Z,2.07
2023-05-09T13:29:01.448Z,2.27
2023-05-09T13:31:28.573Z,2.63
2023-05-09T13:33:55.486Z,2.77
2023-05-09T13:36:22.621Z,2.70
2023-05-09T13:38:49.545Z,2.30
2023-05-09T13:41:21.289Z,2.40
2023-05-09T13:43:48.501Z,2.40
2023-05-09T13:46:15.484Z,2.60
2023-05-09T13:48:42.504Z,2.20
2023-05-09T13:51:10.131Z,2.77
2023-05-09T13:53:39.053Z,3.13
2023-05-09T13:56:07.509Z,2.40
2023-05-09T13:58:34.543Z,2.50
2023-05-09T14:01:01.369Z,2.37
2023-05-09T14:03:28.329Z,3.00
2023-05-09T14:05:55.333Z,2.50
2023-05-09T14:08:22.291Z,2.70
2023-05-09T14:10:49.091Z,2.53
2023-05-09T14:13:16.452Z,2.07
2023-05-09T14:15:43.426Z,2.30
2023-05-09T14:18:10.277Z,2.20
2023-05-09T14:20:37.826Z,1.80
2023-05-09T14:23:04.703Z,2.27
2023-05-09T14:25:31.935Z,1.97
2023-05-09T14:27:59.589Z,2.40
2023-05-09T14:30:26.843Z,2.57
2023-05-09T14:32:53.825Z,2.53
2023-05-09T14:35:21.135Z,2.53
2023-05-09T14:37:48.066Z,2.37
2023-05-09T14:40:15.495Z,2.43
2023-05-09T14:42:42.816Z,3.00
2023-05-09T14:45:12.289Z,2.47
2023-05-09T14:47:39.171Z,2.33
2023-05-09T14:50:06.512Z,2.80
2023-05-09T14:52:33.426Z,2.37
2023-05-09T14:55:00.421Z,2.60
2023-05-09T14:57:27.359Z,3.13
2023-05-09T14:59:54.283Z,2.57
2023-05-09T15:02:21.242Z,2.67
2023-05-09T15:04:48.089Z,2.30
2023-05-09T15:07:15.073Z,2.20
2023-05-09T15:09:41.908Z,2.40
2023-05-09T15:12:08.801Z,2.87
2023-05-09T15:14:35.862Z,2.00
2023-05-09T15:17:04.478Z,3.07
2023-05-09T15:19:31.925Z,2.50
2023-05-09T15:21:59.831Z,2.20
2023-05-09T15:24:27.125Z,2.90
2023-05-09T15:26:54.500Z,2.60
2023-05-09T15:29:24.545Z,2.40
2023-05-09T15:31:51.509Z,1.47
2023-05-09T15:34:18.405Z,2.57
2023-05-09T15:36:45.408Z,2.53
2023-05-09T15:39:12.447Z,2.73
2023-05-09T15:41:39.287Z,2.47
2023-05-09T15:44:07.533Z,2.50
2023-05-09T15:46:34.628Z,2.57
2023-05-09T15:49:01.586Z,2.10
2023-05-09T15:51:30.245Z,2.90
2023-05-09T15:53:57.104Z,2.70
2023-05-09T15:56:24.082Z,2.10
2023-05-09T15:58:50.985Z,2.20
2023-05-09T16:01:17.997Z,3.20
2023-05-09T16:03:45.407Z,2.47
2023-05-09T16:06:13.105Z,2.67
2023-05-09T16:08:39.951Z,2.47
2023-05-09T16:11:06.861Z,2.30
2023-05-09T16:13:35.695Z,2.20
2023-05-09T16:16:03.302Z,2.57
2023-05-09T16:18:30.232Z,2.40
2023-05-09T16:20:57.127Z,1.20
2023-05-09T16:23:24.268Z,2.50
2023-05-09T16:25:51.151Z,2.33
2023-05-09T16:28:19.591Z,2.13
2023-05-09T16:30:46.539Z,2.27
2023-05-09T16:33:13.588Z,2.07
2023-05-09T16:35:40.488Z,2.37
2023-05-09T16:38:07.449Z,2.27
2023-05-09T16:40:34.456Z,1.93
2023-05-09T16:43:01.251Z,2.53
2023-05-09T16:45:28.279Z,2.43
2023-05-09T16:47:58.457Z,2.60
2023-05-09T16:50:26.483Z,2.77
2023-05-09T16:52:53.803Z,2.43
2023-05-09T16:55:20.701Z,2.80
2023-05-09T16:57:47.549Z,3.13
2023-05-09T17:00:14.897Z,3.00
2023-05-09T17:02:42.071Z,3.00
2023-05-09T17:05:09.402Z,3.97
2023-05-09T17:07:36.324Z,2.80
2023-05-09T17:10:04.060Z,3.00
2023-05-09T17:12:30.942Z,3.20
2023-05-09T17:14:58.021Z,3.77
2023-05-09T17:17:24.861Z,3.30
2023-05-09T17:19:51.845Z,2.60
2023-05-09T17:22:18.742Z,3.10
2023-05-09T17:24:45.997Z,4.10
2023-05-09T17:27:12.912Z,5.27
2023-05-09T17:29:39.869Z,4.00
2023-05-09T17:32:07.084Z,3.93
2023-05-09T17:34:34.163Z,3.60
2023-05-09T17:37:02.519Z,3.70
2023-05-09T17:39:29.607Z,4.47
2023-05-09T17:41:56.540Z,4.77
2023-05-09T17:44:24.135Z,4.40
2023-05-09T17:46:50.983Z,4.63
2023-05-09T17:49:18.535Z,3.70
2023-05-09T17:51:45.476Z,5.37
2023-05-09T17:54:13.135Z,5.37
2023-05-09T17:56:40.245Z,5.67
2023-05-09T17:59:08.279Z,4.80
2023-05-09T18:01:35.183Z,4.43
2023-05-09T18:04:02.322Z,4.40
2023-05-09T18:06:29.514Z,16.93
2023-05-09T18:08:56.368Z,5.13
2023-05-09T18:11:23.392Z,4.70
2023-05-09T18:13:51.020Z,4.60
2023-05-09T18:16:17.927Z,4.63
2023-05-09T18:18:45.135Z,4.80
2023-05-09T18:21:12.125Z,4.60
2023-05-09T18:23:39.064Z,3.90
2023-05-09T18:26:05.910Z,4.60
2023-05-09T18:28:39.426Z,7.20
2023-05-09T18:31:07.234Z,9.00
2023-05-09T18:33:39.479Z,9.93
2023-05-09T18:36:10.598Z,7.53
2023-05-09T18:38:38.851Z,5.60
2023-05-09T18:41:06.529Z,5.63
2023-05-09T18:43:33.559Z,6.27
2023-05-09T18:46:00.521Z,5.00
2023-05-09T18:48:27.434Z,5.73
2023-05-09T18:50:54.302Z,4.87
2023-05-09T18:53:21.786Z,6.37
2023-05-09T18:55:48.699Z,5.83
2023-05-09T18:58:15.612Z,4.47
2023-05-09T19:00:43.553Z,5.83
2023-05-09T19:03:10.516Z,5.43
2023-05-09T19:05:37.381Z,5.93
2023-05-09T19:08:04.486Z,4.73
2023-05-09T19:10:31.415Z,4.77
2023-05-09T19:12:58.454Z,4.40
2023-05-09T19:15:25.608Z,4.10
2023-05-09T19:17:52.818Z,3.40
2023-05-09T19:20:19.706Z,4.17
2023-05-09T19:22:51.497Z,3.97
2023-05-09T19:25:19.108Z,4.63
2023-05-09T19:27:46.218Z,5.07
2023-05-09T19:30:17.229Z,7.07
2023-05-09T19:32:44.709Z,7.60
2023-05-09T19:35:11.677Z,7.87
2023-05-09T19:37:38.684Z,8.20
2023-05-09T19:40:06.421Z,8.40
2023-05-09T19:42:33.938Z,8.07
2023-05-09T19:45:01.602Z,7.30
2023-05-09T19:47:28.480Z,8.40
2023-05-09T19:49:55.409Z,7.13
2023-05-09T19:52:23.551Z,8.27
2023-05-09T19:54:50.630Z,9.80
2023-05-09T19:57:17.836Z,7.90
2023-05-09T19:59:44.865Z,9.80
2023-05-09T20:02:11.787Z,10.97
2023-05-09T20:04:38.797Z,7.97
2023-05-09T20:07:05.903Z,7.80
2023-05-09T20:09:33.188Z,7.53
2023-05-09T20:12:02.224Z,7.20
2023-05-09T20:14:29.270Z,8.63
2023-05-09T20:16:56.676Z,8.63
2023-05-09T20:19:23.625Z,6.67
2023-05-09T20:21:50.529Z,7.90
2023-05-09T20:24:17.365Z,7.33
2023-05-09T20:26:44.373Z,7.73
2023-05-09T20:29:11.241Z,7.50
2023-05-09T20:31:38.167Z,6.73
2023-05-09T20:34:05.082Z,6.03
2023-05-09T20:36:32.093Z,5.57
2023-05-09T20:38:58.916Z,5.60
2023-05-09T20:41:25.841Z,4.93
2023-05-09T20:43:52.806Z,5.53
2023-05-09T20:46:19.696Z,5.30
2023-05-09T20:48:46.830Z,5.23
2023-05-09T20:51:13.792Z,5.87
2023-05-09T20:53:40.629Z,4.50
2023-05-09T20:56:07.797Z,4.63
2023-05-09T20:58:34.845Z,4.37
2023-05-09T21:01:01.850Z,4.83
2023-05-09T21:03:28.735Z,13.37
2023-05-09T21:05:55.709Z,9.10
2023-05-09T21:08:23.043Z,5.20
2023-05-09T21:10:52.760Z,5.27
2023-05-09T21:13:19.741Z,7.33
2023-05-09T21:15:49.101Z,5.80
2023-05-09T21:18:15.906Z,5.80
2023-05-09T21:20:42.971Z,4.77
2023-05-09T21:23:10.021Z,5.83
2023-05-09T21:25:36.934Z,5.93
2023-05-09T21:28:03.741Z,5.40
2023-05-09T21:30:30.870Z,5.43
2023-05-09T21:32:57.747Z,4.53
2023-05-09T21:35:24.689Z,4.77
2023-05-09T21:37:52.888Z,4.27
2023-05-09T21:40:19.813Z,4.60
2023-05-09T21:42:47.088Z,4.47
2023-05-09T21:45:14.311Z,4.27
2023-05-09T21:47:41.238Z,4.40
2023-05-09T21:50:08.380Z,4.73
2023-05-09T21:52:35.462Z,4.90
2023-05-09T21:55:02.283Z,4.07
2023-05-09T21:57:29.145Z,4.33
2023-05-09T21:59:56.485Z,4.70
2023-05-09T22:02:23.499Z,4.33
2023-05-09T22:04:50.372Z,4.93
2023-05-09T22:07:17.280Z,9.03
2023-05-09T22:09:44.191Z,7.17
2023-05-09T22:12:11.006Z,6.17
2023-05-09T22:14:48.609Z,5.57
2023-05-09T22:17:22.697Z,5.43
2023-05-09T22:19:49.545Z,5.40
2023-05-09T22:22:16.457Z,5.90
2023-05-09T22:24:43.354Z,5.77
2023-05-09T22:27:10.799Z,5.10
2023-05-09T22:29:37.764Z,5.17
2023-05-09T22:32:04.836Z,4.37
2023-05-09T22:34:31.901Z,4.83
2023-05-09T22:36:58.876Z,4.87
2023-05-09T22:39:25.921Z,4.50
2023-05-09T22:41:52.785Z,4.60
2023-05-09T22:44:19.753Z,5.30
2023-05-09T22:46:46.684Z,5.33
2023-05-09T22:49:13.624Z,4.73
2023-05-09T22:51:40.418Z,5.67
2023-05-09T22:54:07.404Z,5.27
2023-05-09T22:56:34.278Z,4.90
2023-05-09T22:59:01.165Z,5.60
2023-05-09T23:01:28.112Z,6.83
2023-05-09T23:03:55.051Z,5.80
2023-05-09T23:06:21.892Z,5.77
2023-05-09T23:08:49.084Z,5.47
2023-05-09T23:11:15.891Z,5.53
2023-05-09T23:13:42.896Z,5.57
2023-05-09T23:16:10.435Z,5.90
2023-05-09T23:18:37.360Z,5.93
2023-05-09T23:21:05.040Z,6.17
2023-05-09T23:23:31.953Z,6.33
2023-05-09T23:25:58.916Z,5.60
2023-05-09T23:28:25.730Z,5.87
2023-05-09T23:30:53.725Z,5.20
2023-05-09T23:33:20.645Z,6.07
2023-05-09T23:35:47.941Z,6.60
2023-05-09T23:38:14.879Z,6.07
2023-05-09T23:40:44.040Z,6.50
2023-05-09T23:43:10.891Z,6.30
2023-05-09T23:45:37.792Z,5.93
2023-05-09T23:48:04.895Z,6.00
2023-05-09T23:50:31.864Z,6.40
2023-05-09T23:52:58.699Z,6.23
2023-05-09T23:55:25.680Z,6.60
2023-05-09T23:57:52.490Z,6.73
